Time;durP1;ratioP1;P1;durP2;ratioP2;P2;SDS_P1;SDS_P2;PMS_P1;PMS_P2;Temp;Humidity;BMP_temperature;BMP_pressure;BME280_temperature;BME280_humidity;BME280_pressure;Samples;Min_cycle;Max_cycle;Signal;HPM_P1;HPM_P2
2020/12/24 00:05:38;;;;;;;4.00;2.57;;;10.60;99.90;;;;;;20790416;28;20638;-71
2020/12/24 00:15:41;;;;;;;6.67;1.67;;;10.80;99.90;;;;;;20787772;28;20237;-71
2020/12/24 00:25:52;;;;;;;4.07;3.73;;;10.90;99.90;;;;;;20769994;28;20703;-71
2020/12/24 00:35:55;;;;;;;2.40;1.07;;;10.90;99.90;;;;;;20787901;28;20194;-72
2020/12/24 00:45:58;;;;;;;6.07;2.70;;;10.70;99.90;;;;;;20786786;28;20226;-72
2020/12/24 00:56:12;;;;;;;2.20;1.43;;;10.70;99.90;;;;;;20769042;28;20221;-72
2020/12/24 01:06:15;;;;;;;7.40;1.57;;;10.60;99.90;;;;;;20783318;28;20226;-72
2020/12/24 01:16:18;;;;;;;2.10;1.90;;;10.70;99.90;;;;;;20784679;28;20377;-72
2020/12/24 01:26:32;;;;;;;6.60;2.47;;;10.90;99.90;;;;;;20783071;28;20275;-72
2020/12/24 01:36:36;;;;;;;3.20;2.47;;;11.20;99.90;;;;;;20780401;28;20198;-72
2020/12/24 01:46:38;;;;;;;1.47;0.87;;;11.40;99.90;;;;;;20764315;28;20236;-73
2020/12/24 01:56:57;;;;;;;3.50;2.93;;;11.50;99.90;;;;;;20780421;28;20646;-72
2020/12/24 02:07:00;;;;;;;1.63;1.53;;;11.60;99.90;;;;;;20669187;23;20231;-68
2020/12/24 02:17:03;;;;;;;1.23;1.20;;;11.70;99.90;;;;;;20619919;28;20645;-69
2020/12/24 02:27:10;;;;;;;16.07;2.27;;;11.80;99.90;;;;;;20614008;28;20638;-68
2020/12/24 02:37:13;;;;;;;2.07;1.37;;;11.90;99.90;;;;;;20617244;28;20564;-67
2020/12/24 02:47:17;;;;;;;6.23;1.27;;;11.90;99.90;;;;;;20622421;28;20234;-68
2020/12/24 02:57:32;;;;;;;2.50;1.87;;;11.90;99.90;;;;;;20619346;28;20653;-67
2020/12/24 03:07:39;;;;;;;1.37;1.27;;;11.90;99.90;;;;;;20968325;23;20240;-70
2020/12/24 03:17:41;;;;;;;0.80;0.80;;;11.90;99.90;;;;;;20775069;28;20217;-70
2020/12/24 03:27:52;;;;;;;1.20;1.13;;;11.70;99.90;;;;;;20775849;28;20307;-70
2020/12/24 03:37:54;;;;;;;0.53;0.53;;;11.80;99.90;;;;;;20788664;28;20198;-69
2020/12/24 03:47:58;;;;;;;2.10;0.60;;;11.80;99.90;;;;;;20791916;28;20226;-70
2020/12/24 03:58:11;;;;;;;0.67;0.67;;;11.70;99.90;;;;;;20793168;28;20480;-70
2020/12/24 04:08:15;;;;;;;2.03;1.20;;;11.90;99.90;;;;;;20801793;22;20733;-68
2020/12/24 04:18:17;;;;;;;0.80;0.70;;;11.70;99.90;;;;;;20789446;28;20209;-68
2020/12/24 04:28:32;;;;;;;5.13;1.27;;;11.70;99.90;;;;;;20788995;28;20233;-68
2020/12/24 04:38:36;;;;;;;1.63;0.40;;;11.70;99.90;;;;;;20788482;28;20195;-69
2020/12/24 04:48:40;;;;;;;0.83;0.73;;;11.60;99.90;;;;;;20791417;28;20702;-68
2020/12/24 04:58:53;;;;;;;1.13;1.03;;;11.30;99.90;;;;;;20784094;28;20244;-68
2020/12/24 05:08:58;;;;;;;0.80;0.80;;;11.40;99.90;;;;;;20785056;28;20276;-68
2020/12/24 05:19:11;;;;;;;6.17;1.93;;;11.50;99.90;;;;;;20782522;28;20198;-68
2020/12/24 05:29:15;;;;;;;1.33;0.80;;;11.50;99.90;;;;;;20783061;28;20700;-68
2020/12/24 05:39:17;;;;;;;0.97;0.87;;;11.50;99.90;;;;;;20782315;28;20194;-68
2020/12/24 05:49:21;;;;;;;1.27;1.20;;;11.80;99.90;;;;;;20780314;28;20218;-69
2020/12/24 05:59:32;;;;;;;10.87;2.10;;;11.90;99.90;;;;;;20781755;28;20674;-69
2020/12/24 06:09:38;;;;;;;3.57;1.33;;;12.00;99.90;;;;;;20780112;28;20202;-69
2020/12/24 06:19:41;;;;;;;11.70;2.20;;;11.80;99.90;;;;;;20780130;28;20558;-68
2020/12/24 06:29:52;;;;;;;0.63;0.63;;;11.90;99.90;;;;;;20778084;28;20593;-68
2020/12/24 06:39:55;;;;;;;4.00;1.17;;;12.10;99.90;;;;;;20776759;28;20214;-68
2020/12/24 06:49:58;;;;;;;4.53;1.33;;;12.20;99.90;;;;;;20776900;28;20202;-69
2020/12/24 07:00:19;;;;;;;3.70;1.87;;;12.30;99.90;;;;;;20775531;28;20221;-69
2020/12/24 07:10:44;;;;;;;5.37;1.10;;;12.40;99.90;;;;;;20774581;28;20552;-69
2020/12/24 07:20:50;;;;;;;1.40;1.30;;;12.30;99.90;;;;;;20771692;28;20225;-69
2020/12/24 07:30:58;;;;;;;2.40;1.50;;;12.60;99.90;;;;;;20772432;28;20213;-70
2020/12/24 07:41:00;;;;;;;0.60;0.53;;;12.80;99.90;;;;;;20774354;28;20610;-69
2020/12/24 07:51:09;;;;;;;0.20;0.03;;;12.90;99.90;;;;;;20774653;28;20197;-68
2020/12/24 08:01:11;;;;;;;4.00;2.07;;;13.10;99.90;;;;;;20771651;28;20300;-70
2020/12/24 08:11:14;;;;;;;0.20;0.00;;;13.20;99.90;;;;;;20769786;28;20679;-71
2020/12/24 08:21:23;;;;;;;0.27;0.20;;;13.30;99.90;;;;;;20778973;28;20581;-69
2020/12/24 08:31:27;;;;;;;3.30;1.50;;;13.40;99.90;;;;;;20783204;28;20321;-70
2020/12/24 08:41:34;;;;;;;0.30;0.23;;;13.40;99.90;;;;;;20795863;28;20247;-71
2020/12/24 08:51:37;;;;;;;0.43;0.43;;;13.40;99.90;;;;;;20785296;28;20202;-71
2020/12/24 09:01:41;;;;;;;4.03;2.50;;;13.70;99.90;;;;;;20799343;28;20244;-69
2020/12/24 09:11:45;;;;;;;0.20;0.10;;;13.80;99.90;;;;;;20780824;28;20190;-69
2020/12/24 09:21:52;;;;;;;0.20;0.07;;;14.10;99.90;;;;;;20782228;28;20226;-70
2020/12/24 09:31:57;;;;;;;0.40;0.40;;;14.20;99.90;;;;;;20788011;28;20453;-71
2020/12/24 09:42:00;;;;;;;0.73;0.30;;;14.10;99.90;;;;;;20794957;28;20279;-69
2020/12/24 09:52:03;;;;;;;0.20;0.00;;;14.20;99.90;;;;;;20782678;28;20859;-68
2020/12/24 10:02:07;;;;;;;6.73;0.40;;;14.50;99.90;;;;;;20775487;28;20242;-69
2020/12/24 10:12:10;;;;;;;0.20;0.10;;;14.80;99.90;;;;;;20778280;28;20242;-69
2020/12/24 10:22:14;;;;;;;0.20;0.00;;;14.50;99.90;;;;;;20774437;28;20244;-72
2020/12/24 10:32:27;;;;;;;0.20;0.10;;;14.70;99.90;;;;;;20771801;28;20233;-70
2020/12/24 10:42:29;;;;;;;0.27;0.07;;;15.00;99.90;;;;;;20772396;28;20225;-71
2020/12/24 10:52:34;;;;;;;0.20;0.03;;;14.80;99.90;;;;;;20775213;28;20597;-71
2020/12/24 11:02:44;;;;;;;0.27;0.23;;;15.20;99.90;;;;;;20774442;28;20229;-71
2020/12/24 11:12:49;;;;;;;0.20;0.10;;;15.40;99.90;;;;;;20771729;28;20201;-72
2020/12/24 11:22:51;;;;;;;1.07;0.90;;;15.40;99.90;;;;;;20772606;28;20222;-72
2020/12/24 11:33:04;;;;;;;0.20;0.17;;;15.10;99.90;;;;;;20749402;28;20497;-71
2020/12/24 11:43:07;;;;;;;0.20;0.00;;;15.10;99.90;;;;;;20706919;28;20214;-70
2020/12/24 11:53:10;;;;;;;0.20;0.10;;;15.10;99.90;;;;;;20775380;28;20200;-69
2020/12/24 12:03:25;;;;;;;0.20;0.10;;;15.00;99.90;;;;;;20786661;28;20237;-70
2020/12/24 12:13:29;;;;;;;0.50;0.50;;;14.90;99.90;;;;;;20788804;28;20438;-70
2020/12/24 12:23:32;;;;;;;0.80;0.80;;;14.70;99.90;;;;;;20782931;28;20246;-71
2020/12/24 12:33:45;;;;;;;0.20;0.20;;;14.70;99.90;;;;;;20781022;28;20189;-69
2020/12/24 12:43:48;;;;;;;0.20;0.00;;;15.20;99.90;;;;;;20785362;28;20249;-72
2020/12/24 12:53:52;;;;;;;0.20;0.00;;;15.10;99.90;;;;;;20785618;28;20221;-71
2020/12/24 13:04:06;;;;;;;0.40;0.40;;;14.80;99.90;;;;;;20784796;28;20599;-70
2020/12/24 13:14:10;;;;;;;3.03;0.87;;;14.40;99.90;;;;;;20783810;28;20191;-70
2020/12/24 13:24:12;;;;;;;0.20;0.07;;;14.30;99.90;;;;;;20783019;28;20222;-71
2020/12/24 13:34:25;;;;;;;0.30;0.20;;;14.30;99.90;;;;;;20792258;28;20705;-70
2020/12/24 13:44:27;;;;;;;0.27;0.20;;;14.10;99.90;;;;;;20780512;28;20236;-71
2020/12/24 13:54:31;;;;;;;2.67;0.80;;;14.20;99.90;;;;;;20780156;28;20368;-71
2020/12/24 14:04:43;;;;;;;0.77;0.37;;;14.20;99.90;;;;;;20777203;28;20274;-70
2020/12/24 14:14:47;;;;;;;0.87;0.60;;;14.00;99.90;;;;;;20765858;28;20824;-69
2020/12/24 14:24:49;;;;;;;0.40;0.40;;;14.10;99.90;;;;;;20716737;28;20822;-70
2020/12/24 14:35:04;;;;;;;0.30;0.30;;;14.00;99.90;;;;;;20763258;28;20673;-69
2020/12/24 14:45:07;;;;;;;3.57;0.97;;;13.80;99.90;;;;;;20775079;28;20522;-70
2020/12/24 14:55:10;;;;;;;0.53;0.50;;;13.90;99.90;;;;;;20772852;28;20190;-71
2020/12/24 15:05:23;;;;;;;1.43;0.77;;;13.60;99.90;;;;;;20769805;28;20238;-70
2020/12/24 15:15:27;;;;;;;0.30;0.30;;;13.50;99.90;;;;;;20770835;28;20186;-69
2020/12/24 15:25:30;;;;;;;0.23;0.23;;;13.40;99.90;;;;;;20768607;28;20225;-71
2020/12/24 15:35:43;;;;;;;0.43;0.43;;;13.40;99.90;;;;;;20788822;28;20678;-70
2020/12/24 15:45:46;;;;;;;0.50;0.40;;;13.30;99.90;;;;;;20785242;28;20556;-70
2020/12/24 15:55:49;;;;;;;2.97;0.57;;;13.20;99.90;;;;;;20786811;28;20234;-71
2020/12/24 16:06:01;;;;;;;0.57;0.43;;;13.20;99.90;;;;;;20786727;28;20225;-71
2020/12/24 16:16:04;;;;;;;0.33;0.30;;;13.10;99.90;;;;;;20787180;28;20213;-71
2020/12/24 16:26:08;;;;;;;0.67;0.23;;;13.10;99.90;;;;;;20784202;28;20304;-71
2020/12/24 16:36:22;;;;;;;1.67;0.87;;;13.10;99.90;;;;;;20781894;28;20201;-70
2020/12/24 16:46:24;;;;;;;0.70;0.43;;;13.00;99.90;;;;;;20783099;28;20225;-70
2020/12/24 16:56:28;;;;;;;1.07;1.00;;;12.80;99.90;;;;;;20782473;28;20220;-71
2020/12/24 17:06:37;;;;;;;0.70;0.60;;;12.70;99.90;;;;;;20784777;28;20387;-73
2020/12/24 17:16:41;;;;;;;1.73;0.93;;;12.60;99.90;;;;;;20782797;28;20194;-71
2020/12/24 17:26:43;;;;;;;0.73;0.40;;;12.50;99.90;;;;;;20754205;28;20582;-72
2020/12/24 17:36:55;;;;;;;0.30;0.20;;;12.40;99.90;;;;;;20782004;28;20194;-71
2020/12/24 17:46:58;;;;;;;7.53;1.40;;;12.30;99.90;;;;;;20781191;28;20233;-73
2020/12/24 17:57:01;;;;;;;6.40;0.97;;;12.20;99.90;;;;;;20783762;28;20285;-74
2020/12/24 18:07:13;;;;;;;0.77;0.60;;;11.80;99.90;;;;;;20778030;28;20355;-73
2020/12/24 18:17:17;;;;;;;0.97;0.70;;;11.70;99.90;;;;;;20782051;28;20217;-74
2020/12/24 18:27:20;;;;;;;0.40;0.40;;;11.80;99.90;;;;;;20791854;28;20359;-74
2020/12/24 18:37:37;;;;;;;0.27;0.20;;;12.00;99.90;;;;;;20782147;28;20197;-72
2020/12/24 18:47:40;;;;;;;0.70;0.30;;;11.90;99.90;;;;;;20779287;28;21108;-71
2020/12/24 18:57:44;;;;;;;0.70;0.40;;;11.90;99.90;;;;;;20832843;28;20251;-73
2020/12/24 19:07:53;;;;;;;0.40;0.40;;;11.80;99.90;;;;;;20786354;28;20240;-72
2020/12/24 19:17:57;;;;;;;0.43;0.33;;;11.90;99.90;;;;;;20776495;28;20618;-70
2020/12/24 19:27:59;;;;;;;1.13;0.50;;;11.90;99.90;;;;;;20772538;28;20230;-72
2020/12/24 19:38:13;;;;;;;3.83;1.80;;;12.00;99.90;;;;;;20768370;28;20206;-70
2020/12/24 19:48:15;;;;;;;0.20;0.10;;;11.80;99.90;;;;;;20769841;28;20222;-71
2020/12/24 19:58:19;;;;;;;1.30;0.57;;;11.70;99.90;;;;;;20773493;28;20202;-69
2020/12/24 20:08:29;;;;;;;0.40;0.40;;;11.50;99.90;;;;;;20773677;28;20245;-72
2020/12/24 20:18:33;;;;;;;0.47;0.30;;;11.30;99.90;;;;;;20782859;28;20541;-71
2020/12/24 20:28:37;;;;;;;0.20;0.20;;;11.20;99.90;;;;;;20783816;28;20214;-72
2020/12/24 20:38:50;;;;;;;0.53;0.30;;;11.20;99.90;;;;;;20783447;28;20194;-71
2020/12/24 20:48:53;;;;;;;0.97;0.30;;;11.20;99.90;;;;;;20786295;28;20233;-71
2020/12/24 20:58:58;;;;;;;1.00;1.00;;;11.00;99.90;;;;;;20783111;28;20201;-72
2020/12/24 21:09:12;;;;;;;0.27;0.27;;;10.90;99.90;;;;;;20782549;28;20369;-73
2020/12/24 21:19:16;;;;;;;0.37;0.37;;;10.90;99.90;;;;;;20783465;28;20205;-69
2020/12/24 21:29:19;;;;;;;0.20;0.10;;;10.70;99.90;;;;;;20780645;28;20230;-70
2020/12/24 21:39:32;;;;;;;0.60;0.30;;;10.50;99.90;;;;;;20780304;28;20300;-68
2020/12/24 21:49:34;;;;;;;0.20;0.10;;;10.50;99.90;;;;;;20779076;28;20226;-71
2020/12/24 21:59:38;;;;;;;2.03;0.90;;;10.30;99.90;;;;;;20779160;28;20216;-71
2020/12/24 22:09:51;;;;;;;0.20;0.13;;;10.20;99.90;;;;;;20778286;28;20230;-70
2020/12/24 22:19:54;;;;;;;0.30;0.30;;;10.00;99.90;;;;;;20775830;28;20202;-70
2020/12/24 22:29:58;;;;;;;0.33;0.33;;;9.90;99.90;;;;;;20775732;28;20265;-69
2020/12/24 22:40:13;;;;;;;0.30;0.30;;;9.80;99.90;;;;;;20774690;28;20671;-71
2020/12/24 22:50:18;;;;;;;2.40;1.17;;;9.40;99.90;;;;;;20776369;28;20240;-70
2020/12/24 23:00:27;;;;;;;0.73;0.73;;;9.20;99.90;;;;;;20773726;28;20226;-71
2020/12/24 23:10:32;;;;;;;0.57;0.40;;;9.10;99.90;;;;;;20777424;28;20713;-72
2020/12/24 23:20:35;;;;;;;0.30;0.20;;;8.60;99.90;;;;;;20791426;28;20202;-71
2020/12/24 23:30:38;;;;;;;0.20;0.10;;;8.70;99.90;;;;;;20770914;28;20222;-70
2020/12/24 23:40:51;;;;;;;0.30;0.30;;;9.30;99.90;;;;;;20770674;28;20553;-69
2020/12/24 23:50:54;;;;;;;0.27;0.17;;;9.20;99.90;;;;;;20778938;28;20630;-70
